sensor_id;sensor_type;location;lat;lon;timestamp;P1;durP1;ratioP1;P2;durP2;ratioP2
84080;SDS011;74173;48.190;16.350;2023-11-18T00:01:21;12.05;;;9.68;;
84080;SDS011;74173;48.190;16.350;2023-11-18T00:03:47;15.50;;;9.35;;
84080;SDS011;74173;48.190;16.350;2023-11-18T00:06:13;13.68;;;9.45;;
84080;SDS011;74173;48.190;16.350;2023-11-18T00:08:39;11.70;;;9.00;;
84080;SDS011;74173;48.190;16.350;2023-11-18T00:11:05;15.02;;;9.13;;
84080;SDS011;74173;48.190;16.350;2023-11-18T00:13:30;12.15;;;9.23;;
84080;SDS011;74173;48.190;16.350;2023-11-18T00:15:56;12.40;;;8.68;;
84080;SDS011;74173;48.190;16.350;2023-11-18T00:18:23;15.25;;;9.48;;
84080;SDS011;74173;48.190;16.350;2023-11-18T00:20:48;12.65;;;9.95;;
84080;SDS011;74173;48.190;16.350;2023-11-18T00:23:18;12.77;;;8.43;;
84080;SDS011;74173;48.190;16.350;2023-11-18T00:25:44;12.65;;;9.18;;
84080;SDS011;74173;48.190;16.350;2023-11-18T00:28:10;13.50;;;9.40;;
84080;SDS011;74173;48.190;16.350;2023-11-18T00:30:39;13.00;;;8.77;;
84080;SDS011;74173;48.190;16.350;2023-11-18T00:33:05;12.40;;;8.20;;
84080;SDS011;74173;48.190;16.350;2023-11-18T00:35:30;11.43;;;9.02;;
84080;SDS011;74173;48.190;16.350;2023-11-18T00:37:58;15.38;;;9.40;;
84080;SDS011;74173;48.190;16.350;2023-11-18T00:40:25;13.05;;;9.25;;
84080;SDS011;74173;48.190;16.350;2023-11-18T00:42:55;12.15;;;9.30;;
84080;SDS011;74173;48.190;16.350;2023-11-18T00:45:21;10.40;;;8.52;;
84080;SDS011;74173;48.190;16.350;2023-11-18T00:47:47;13.45;;;8.45;;
84080;SDS011;74173;48.190;16.350;2023-11-18T00:50:13;13.18;;;9.52;;
84080;SDS011;74173;48.190;16.350;2023-11-18T00:52:39;11.98;;;8.57;;
84080;SDS011;74173;48.190;16.350;2023-11-18T00:55:07;11.05;;;8.48;;
84080;SDS011;74173;48.190;16.350;2023-11-18T00:57:34;13.85;;;9.32;;
84080;SDS011;74173;48.190;16.350;2023-11-18T01:00:00;11.18;;;8.88;;
84080;SDS011;74173;48.190;16.350;2023-11-18T01:02:25;14.02;;;9.68;;
84080;SDS011;74173;48.190;16.350;2023-11-18T01:04:52;11.48;;;8.50;;
84080;SDS011;74173;48.190;16.350;2023-11-18T01:07:17;11.52;;;9.27;;
84080;SDS011;74173;48.190;16.350;2023-11-18T01:09:45;11.57;;;8.88;;
84080;SDS011;74173;48.190;16.350;2023-11-18T01:12:14;13.73;;;8.75;;
84080;SDS011;74173;48.190;16.350;2023-11-18T01:14:39;11.18;;;8.73;;
84080;SDS011;74173;48.190;16.350;2023-11-18T01:17:07;11.75;;;9.05;;
84080;SDS011;74173;48.190;16.350;2023-11-18T01:19:34;10.35;;;8.40;;
84080;SDS011;74173;48.190;16.350;2023-11-18T01:22:00;11.35;;;8.93;;
84080;SDS011;74173;48.190;16.350;2023-11-18T01:24:30;11.80;;;8.35;;
84080;SDS011;74173;48.190;16.350;2023-11-18T01:26:57;11.50;;;8.52;;
84080;SDS011;74173;48.190;16.350;2023-11-18T01:29:24;12.88;;;8.88;;
84080;SDS011;74173;48.190;16.350;2023-11-18T01:31:50;12.38;;;9.43;;
84080;SDS011;74173;48.190;16.350;2023-11-18T01:34:17;11.52;;;8.60;;
84080;SDS011;74173;48.190;16.350;2023-11-18T01:36:50;10.63;;;8.02;;
84080;SDS011;74173;48.190;16.350;2023-11-18T01:39:16;11.77;;;9.00;;
84080;SDS011;74173;48.190;16.350;2023-11-18T01:41:46;12.38;;;9.48;;
84080;SDS011;74173;48.190;16.350;2023-11-18T01:44:11;11.35;;;9.38;;
84080;SDS011;74173;48.190;16.350;2023-11-18T01:46:40;11.45;;;8.77;;
84080;SDS011;74173;48.190;16.350;2023-11-18T01:49:10;10.73;;;8.30;;
84080;SDS011;74173;48.190;16.350;2023-11-18T01:51:36;10.80;;;8.70;;
84080;SDS011;74173;48.190;16.350;2023-11-18T01:54:02;10.90;;;8.13;;
84080;SDS011;74173;48.190;16.350;2023-11-18T01:56:33;10.80;;;7.80;;
84080;SDS011;74173;48.190;16.350;2023-11-18T01:58:58;10.52;;;7.57;;
84080;SDS011;74173;48.190;16.350;2023-11-18T02:01:25;9.55;;;7.68;;
84080;SDS011;74173;48.190;16.350;2023-11-18T02:03:52;11.23;;;7.97;;
84080;SDS011;74173;48.190;16.350;2023-11-18T02:06:18;11.02;;;8.00;;
84080;SDS011;74173;48.190;16.350;2023-11-18T02:08:44;11.02;;;8.98;;
84080;SDS011;74173;48.190;16.350;2023-11-18T02:11:20;10.15;;;7.60;;
84080;SDS011;74173;48.190;16.350;2023-11-18T02:13:56;11.65;;;9.63;;
84080;SDS011;74173;48.190;16.350;2023-11-18T02:16:28;11.13;;;8.77;;
84080;SDS011;74173;48.190;16.350;2023-11-18T02:18:53;11.65;;;9.20;;
84080;SDS011;74173;48.190;16.350;2023-11-18T02:21:20;10.95;;;8.88;;
84080;SDS011;74173;48.190;16.350;2023-11-18T02:23:47;10.95;;;8.73;;
84080;SDS011;74173;48.190;16.350;2023-11-18T02:26:20;11.80;;;9.70;;
84080;SDS011;74173;48.190;16.350;2023-11-18T02:28:47;12.35;;;9.00;;
84080;SDS011;74173;48.190;16.350;2023-11-18T02:31:15;11.50;;;8.82;;
84080;SDS011;74173;48.190;16.350;2023-11-18T02:33:59;12.57;;;8.73;;
84080;SDS011;74173;48.190;16.350;2023-11-18T02:36:33;10.98;;;8.60;;
84080;SDS011;74173;48.190;16.350;2023-11-18T02:39:04;11.75;;;8.75;;
84080;SDS011;74173;48.190;16.350;2023-11-18T02:41:36;11.75;;;8.73;;
84080;SDS011;74173;48.190;16.350;2023-11-18T02:44:05;10.25;;;8.80;;
84080;SDS011;74173;48.190;16.350;2023-11-18T02:46:38;13.38;;;8.32;;
84080;SDS011;74173;48.190;16.350;2023-11-18T02:49:04;9.90;;;7.78;;
84080;SDS011;74173;48.190;16.350;2023-11-18T02:51:29;11.48;;;8.82;;
84080;SDS011;74173;48.190;16.350;2023-11-18T02:54:04;11.02;;;8.38;;
84080;SDS011;74173;48.190;16.350;2023-11-18T02:56:36;10.75;;;8.50;;
84080;SDS011;74173;48.190;16.350;2023-11-18T02:59:04;12.18;;;8.93;;
84080;SDS011;74173;48.190;16.350;2023-11-18T03:01:32;12.13;;;8.27;;
84080;SDS011;74173;48.190;16.350;2023-11-18T03:03:58;13.20;;;9.50;;
84080;SDS011;74173;48.190;16.350;2023-11-18T03:06:24;11.30;;;8.40;;
84080;SDS011;74173;48.190;16.350;2023-11-18T03:08:51;13.35;;;9.02;;
84080;SDS011;74173;48.190;16.350;2023-11-18T03:11:17;11.55;;;8.13;;
84080;SDS011;74173;48.190;16.350;2023-11-18T03:13:44;14.02;;;9.65;;
84080;SDS011;74173;48.190;16.350;2023-11-18T03:16:11;12.05;;;8.68;;
84080;SDS011;74173;48.190;16.350;2023-11-18T03:18:41;11.27;;;9.07;;
84080;SDS011;74173;48.190;16.350;2023-11-18T03:21:13;13.02;;;9.80;;
84080;SDS011;74173;48.190;16.350;2023-11-18T03:23:40;11.60;;;9.63;;
84080;SDS011;74173;48.190;16.350;2023-11-18T03:26:06;12.20;;;8.90;;
84080;SDS011;74173;48.190;16.350;2023-11-18T03:28:33;12.80;;;9.15;;
84080;SDS011;74173;48.190;16.350;2023-11-18T03:30:59;10.73;;;9.25;;
84080;SDS011;74173;48.190;16.350;2023-11-18T03:33:24;13.15;;;8.65;;
84080;SDS011;74173;48.190;16.350;2023-11-18T03:35:50;12.32;;;8.40;;
84080;SDS011;74173;48.190;16.350;2023-11-18T03:38:15;12.85;;;9.23;;
84080;SDS011;74173;48.190;16.350;2023-11-18T03:40:44;10.77;;;8.25;;
84080;SDS011;74173;48.190;16.350;2023-11-18T03:43:10;11.35;;;8.10;;
84080;SDS011;74173;48.190;16.350;2023-11-18T03:45:39;11.63;;;8.48;;
84080;SDS011;74173;48.190;16.350;2023-11-18T03:48:05;11.27;;;8.35;;
84080;SDS011;74173;48.190;16.350;2023-11-18T03:50:32;12.60;;;8.90;;
84080;SDS011;74173;48.190;16.350;2023-11-18T03:53:00;12.80;;;9.23;;
84080;SDS011;74173;48.190;16.350;2023-11-18T03:55:29;15.05;;;9.25;;
84080;SDS011;74173;48.190;16.350;2023-11-18T03:57:55;10.95;;;8.60;;
84080;SDS011;74173;48.190;16.350;2023-11-18T04:00:22;11.90;;;8.40;;
84080;SDS011;74173;48.190;16.350;2023-11-18T04:02:47;11.55;;;8.20;;
84080;SDS011;74173;48.190;16.350;2023-11-18T04:05:13;12.75;;;8.50;;
84080;SDS011;74173;48.190;16.350;2023-11-18T04:07:39;12.85;;;9.13;;
84080;SDS011;74173;48.190;16.350;2023-11-18T04:10:08;11.52;;;7.55;;
84080;SDS011;74173;48.190;16.350;2023-11-18T04:12:36;12.70;;;8.13;;
84080;SDS011;74173;48.190;16.350;2023-11-18T04:15:03;13.43;;;8.57;;
84080;SDS011;74173;48.190;16.350;2023-11-18T04:17:30;11.13;;;8.63;;
84080;SDS011;74173;48.190;16.350;2023-11-18T04:19:56;13.15;;;8.90;;
84080;SDS011;74173;48.190;16.350;2023-11-18T04:22:22;12.82;;;8.23;;
84080;SDS011;74173;48.190;16.350;2023-11-18T04:24:49;10.93;;;8.82;;
84080;SDS011;74173;48.190;16.350;2023-11-18T04:27:15;10.27;;;8.35;;
84080;SDS011;74173;48.190;16.350;2023-11-18T04:29:40;12.27;;;8.57;;
84080;SDS011;74173;48.190;16.350;2023-11-18T04:32:06;12.60;;;8.80;;
84080;SDS011;74173;48.190;16.350;2023-11-18T04:34:36;13.57;;;8.70;;
84080;SDS011;74173;48.190;16.350;2023-11-18T04:37:02;13.02;;;8.27;;
84080;SDS011;74173;48.190;16.350;2023-11-18T04:39:31;12.45;;;8.07;;
84080;SDS011;74173;48.190;16.350;2023-11-18T04:41:57;11.40;;;9.07;;
84080;SDS011;74173;48.190;16.350;2023-11-18T04:44:23;11.20;;;8.15;;
84080;SDS011;74173;48.190;16.350;2023-11-18T04:46:48;12.07;;;8.48;;
84080;SDS011;74173;48.190;16.350;2023-11-18T04:49:14;10.88;;;7.97;;
84080;SDS011;74173;48.190;16.350;2023-11-18T04:51:42;10.35;;;7.20;;
84080;SDS011;74173;48.190;16.350;2023-11-18T04:54:07;11.40;;;8.80;;
84080;SDS011;74173;48.190;16.350;2023-11-18T04:56:33;11.93;;;8.38;;
84080;SDS011;74173;48.190;16.350;2023-11-18T04:59:03;10.90;;;8.45;;
84080;SDS011;74173;48.190;16.350;2023-11-18T05:01:30;10.27;;;7.45;;
84080;SDS011;74173;48.190;16.350;2023-11-18T05:03:57;13.63;;;7.68;;
84080;SDS011;74173;48.190;16.350;2023-11-18T05:06:22;11.25;;;7.80;;
84080;SDS011;74173;48.190;16.350;2023-11-18T05:08:48;12.35;;;8.07;;
84080;SDS011;74173;48.190;16.350;2023-11-18T05:11:14;10.82;;;8.02;;
84080;SDS011;74173;48.190;16.350;2023-11-18T05:13:40;13.07;;;7.20;;
84080;SDS011;74173;48.190;16.350;2023-11-18T05:16:06;10.15;;;7.70;;
84080;SDS011;74173;48.190;16.350;2023-11-18T05:18:32;11.30;;;8.98;;
84080;SDS011;74173;48.190;16.350;2023-11-18T05:21:01;11.68;;;7.65;;
84080;SDS011;74173;48.190;16.350;2023-11-18T05:23:30;11.38;;;7.40;;
84080;SDS011;74173;48.190;16.350;2023-11-18T05:25:56;12.55;;;9.43;;
84080;SDS011;74173;48.190;16.350;2023-11-18T05:28:22;10.55;;;8.15;;
84080;SDS011;74173;48.190;16.350;2023-11-18T05:30:49;11.40;;;7.68;;
84080;SDS011;74173;48.190;16.350;2023-11-18T05:33:16;11.13;;;7.22;;
84080;SDS011;74173;48.190;16.350;2023-11-18T05:35:44;10.57;;;7.50;;
84080;SDS011;74173;48.190;16.350;2023-11-18T05:38:17;9.73;;;8.10;;
84080;SDS011;74173;48.190;16.350;2023-11-18T05:40:46;10.75;;;8.02;;
84080;SDS011;74173;48.190;16.350;2023-11-18T05:43:28;9.18;;;6.53;;
84080;SDS011;74173;48.190;16.350;2023-11-18T05:46:06;10.25;;;7.57;;
84080;SDS011;74173;48.190;16.350;2023-11-18T05:48:49;9.30;;;7.20;;
84080;SDS011;74173;48.190;16.350;2023-11-18T05:51:18;9.55;;;7.95;;
84080;SDS011;74173;48.190;16.350;2023-11-18T05:53:46;10.82;;;6.82;;
84080;SDS011;74173;48.190;16.350;2023-11-18T05:56:12;12.25;;;7.38;;
84080;SDS011;74173;48.190;16.350;2023-11-18T05:58:39;9.80;;;7.53;;
84080;SDS011;74173;48.190;16.350;2023-11-18T06:01:04;11.88;;;7.97;;
84080;SDS011;74173;48.190;16.350;2023-11-18T06:03:34;9.23;;;6.93;;
84080;SDS011;74173;48.190;16.350;2023-11-18T06:06:06;9.80;;;7.43;;
84080;SDS011;74173;48.190;16.350;2023-11-18T06:08:35;9.75;;;7.00;;
84080;SDS011;74173;48.190;16.350;2023-11-18T06:11:04;10.35;;;7.43;;
84080;SDS011;74173;48.190;16.350;2023-11-18T06:13:41;10.93;;;7.57;;
84080;SDS011;74173;48.190;16.350;2023-11-18T06:16:09;9.43;;;7.28;;
84080;SDS011;74173;48.190;16.350;2023-11-18T06:18:39;9.32;;;6.80;;
84080;SDS011;74173;48.190;16.350;2023-11-18T06:21:06;10.27;;;7.78;;
84080;SDS011;74173;48.190;16.350;2023-11-18T06:23:31;9.93;;;6.72;;
84080;SDS011;74173;48.190;16.350;2023-11-18T06:25:58;10.68;;;7.70;;
84080;SDS011;74173;48.190;16.350;2023-11-18T06:28:25;10.13;;;6.82;;
84080;SDS011;74173;48.190;16.350;2023-11-18T06:30:52;10.48;;;7.15;;
84080;SDS011;74173;48.190;16.350;2023-11-18T06:33:17;9.45;;;6.82;;
84080;SDS011;74173;48.190;16.350;2023-11-18T06:35:43;11.30;;;7.20;;
84080;SDS011;74173;48.190;16.350;2023-11-18T06:38:10;10.32;;;7.68;;
84080;SDS011;74173;48.190;16.350;2023-11-18T06:40:38;9.10;;;7.03;;
84080;SDS011;74173;48.190;16.350;2023-11-18T06:43:03;12.23;;;8.50;;
84080;SDS011;74173;48.190;16.350;2023-11-18T06:45:35;9.13;;;6.95;;
84080;SDS011;74173;48.190;16.350;2023-11-18T06:48:05;11.93;;;7.18;;
84080;SDS011;74173;48.190;16.350;2023-11-18T06:50:31;9.73;;;7.03;;
84080;SDS011;74173;48.190;16.350;2023-11-18T06:52:58;11.50;;;7.47;;
84080;SDS011;74173;48.190;16.350;2023-11-18T06:55:26;9.63;;;8.10;;
84080;SDS011;74173;48.190;16.350;2023-11-18T06:57:52;12.30;;;7.65;;
84080;SDS011;74173;48.190;16.350;2023-11-18T07:00:20;10.98;;;7.95;;
84080;SDS011;74173;48.190;16.350;2023-11-18T07:02:47;8.90;;;7.07;;
84080;SDS011;74173;48.190;16.350;2023-11-18T07:05:13;9.70;;;6.63;;
84080;SDS011;74173;48.190;16.350;2023-11-18T07:07:40;10.32;;;7.50;;
84080;SDS011;74173;48.190;16.350;2023-11-18T07:10:08;9.05;;;6.00;;
84080;SDS011;74173;48.190;16.350;2023-11-18T07:12:38;9.30;;;6.40;;
84080;SDS011;74173;48.190;16.350;2023-11-18T07:15:04;11.77;;;6.80;;
84080;SDS011;74173;48.190;16.350;2023-11-18T07:17:30;8.85;;;6.80;;
84080;SDS011;74173;48.190;16.350;2023-11-18T07:19:56;9.15;;;6.47;;
84080;SDS011;74173;48.190;16.350;2023-11-18T07:22:21;7.72;;;5.93;;
84080;SDS011;74173;48.190;16.350;2023-11-18T07:24:47;9.80;;;7.68;;
84080;SDS011;74173;48.190;16.350;2023-11-18T07:27:13;10.02;;;6.30;;
84080;SDS011;74173;48.190;16.350;2023-11-18T07:29:38;8.98;;;7.22;;
84080;SDS011;74173;48.190;16.350;2023-11-18T07:32:07;9.88;;;6.80;;
84080;SDS011;74173;48.190;16.350;2023-11-18T07:34:35;10.77;;;6.82;;
84080;SDS011;74173;48.190;16.350;2023-11-18T07:37:01;9.80;;;5.72;;
84080;SDS011;74173;48.190;16.350;2023-11-18T07:39:27;8.35;;;5.97;;
84080;SDS011;74173;48.190;16.350;2023-11-18T07:42:11;7.15;;;5.25;;
84080;SDS011;74173;48.190;16.350;2023-11-18T07:44:37;7.85;;;5.38;;
84080;SDS011;74173;48.190;16.350;2023-11-18T07:47:04;6.47;;;5.80;;
84080;SDS011;74173;48.190;16.350;2023-11-18T07:49:31;6.55;;;5.50;;
84080;SDS011;74173;48.190;16.350;2023-11-18T07:52:03;9.35;;;5.65;;
84080;SDS011;74173;48.190;16.350;2023-11-18T07:54:29;8.32;;;5.20;;
84080;SDS011;74173;48.190;16.350;2023-11-18T07:56:54;8.88;;;5.22;;
84080;SDS011;74173;48.190;16.350;2023-11-18T07:59:20;8.30;;;5.20;;
84080;SDS011;74173;48.190;16.350;2023-11-18T08:01:47;7.07;;;4.93;;
84080;SDS011;74173;48.190;16.350;2023-11-18T08:04:12;10.27;;;5.72;;
84080;SDS011;74173;48.190;16.350;2023-11-18T08:06:39;9.70;;;5.53;;
84080;SDS011;74173;48.190;16.350;2023-11-18T08:09:05;8.05;;;5.80;;
84080;SDS011;74173;48.190;16.350;2023-11-18T08:11:36;12.75;;;4.97;;
84080;SDS011;74173;48.190;16.350;2023-11-18T08:14:01;7.50;;;5.38;;
84080;SDS011;74173;48.190;16.350;2023-11-18T08:16:28;12.93;;;5.88;;
84080;SDS011;74173;48.190;16.350;2023-11-18T08:18:54;9.30;;;5.80;;
84080;SDS011;74173;48.190;16.350;2023-11-18T08:21:20;13.02;;;5.38;;
84080;SDS011;74173;48.190;16.350;2023-11-18T08:23:47;9.48;;;5.05;;
84080;SDS011;74173;48.190;16.350;2023-11-18T08:26:14;11.63;;;5.13;;
84080;SDS011;74173;48.190;16.350;2023-11-18T08:28:39;7.85;;;4.90;;
84080;SDS011;74173;48.190;16.350;2023-11-18T08:31:06;9.70;;;5.88;;
84080;SDS011;74173;48.190;16.350;2023-11-18T08:33:32;9.60;;;5.03;;
84080;SDS011;74173;48.190;16.350;2023-11-18T08:35:59;9.75;;;5.07;;
84080;SDS011;74173;48.190;16.350;2023-11-18T08:38:26;10.00;;;5.75;;
84080;SDS011;74173;48.190;16.350;2023-11-18T08:40:53;8.60;;;5.00;;
84080;SDS011;74173;48.190;16.350;2023-11-18T10:17:43;10.02;;;7.13;;
84080;SDS011;74173;48.190;16.350;2023-11-18T10:20:43;7.72;;;6.78;;
84080;SDS011;74173;48.190;16.350;2023-11-18T10:23:10;9.10;;;6.38;;
84080;SDS011;74173;48.190;16.350;2023-11-18T10:25:39;8.00;;;7.18;;
84080;SDS011;74173;48.190;16.350;2023-11-18T10:28:20;8.60;;;7.05;;
84080;SDS011;74173;48.190;16.350;2023-11-18T10:30:54;7.57;;;6.70;;
84080;SDS011;74173;48.190;16.350;2023-11-18T10:33:40;8.63;;;7.32;;
84080;SDS011;74173;48.190;16.350;2023-11-18T10:36:21;8.07;;;7.15;;
84080;SDS011;74173;48.190;16.350;2023-11-18T10:38:49;7.85;;;6.75;;
84080;SDS011;74173;48.190;16.350;2023-11-18T10:41:17;8.68;;;7.55;;
84080;SDS011;74173;48.190;16.350;2023-11-18T10:43:44;8.52;;;7.72;;
84080;SDS011;74173;48.190;16.350;2023-11-18T10:46:14;8.70;;;7.80;;
84080;SDS011;74173;48.190;16.350;2023-11-18T10:48:41;8.30;;;7.47;;
84080;SDS011;74173;48.190;16.350;2023-11-18T10:51:08;8.15;;;7.30;;
84080;SDS011;74173;48.190;16.350;2023-11-18T10:53:36;9.48;;;7.57;;
84080;SDS011;74173;48.190;16.350;2023-11-18T10:56:06;7.63;;;6.20;;
84080;SDS011;74173;48.190;16.350;2023-11-18T10:58:44;8.50;;;6.95;;
84080;SDS011;74173;48.190;16.350;2023-11-18T11:01:11;7.13;;;6.43;;
84080;SDS011;74173;48.190;16.350;2023-11-18T11:03:53;8.02;;;7.22;;
84080;SDS011;74173;48.190;16.350;2023-11-18T11:06:26;8.57;;;7.13;;
84080;SDS011;74173;48.190;16.350;2023-11-18T11:08:56;7.82;;;7.03;;
84080;SDS011;74173;48.190;16.350;2023-11-18T11:11:24;8.02;;;6.72;;
84080;SDS011;74173;48.190;16.350;2023-11-18T11:14:00;7.95;;;7.25;;
84080;SDS011;74173;48.190;16.350;2023-11-18T11:16:39;7.63;;;6.82;;
84080;SDS011;74173;48.190;16.350;2023-11-18T11:19:13;8.93;;;6.75;;
84080;SDS011;74173;48.190;16.350;2023-11-18T11:22:07;7.50;;;6.80;;
84080;SDS011;74173;48.190;16.350;2023-11-18T11:30:20;7.07;;;6.40;;
84080;SDS011;74173;48.190;16.350;2023-11-18T11:35:18;7.45;;;6.75;;
84080;SDS011;74173;48.190;16.350;2023-11-18T11:37:47;7.30;;;6.43;;
84080;SDS011;74173;48.190;16.350;2023-11-18T11:40:14;7.63;;;6.93;;
84080;SDS011;74173;48.190;16.350;2023-11-18T11:42:50;8.52;;;7.72;;
84080;SDS011;74173;48.190;16.350;2023-11-18T11:45:23;6.95;;;6.25;;
84080;SDS011;74173;48.190;16.350;2023-11-18T11:47:54;7.35;;;6.65;;
84080;SDS011;74173;48.190;16.350;2023-11-18T11:53:21;7.40;;;6.35;;
84080;SDS011;74173;48.190;16.350;2023-11-18T11:55:49;6.95;;;6.20;;
84080;SDS011;74173;48.190;16.350;2023-11-18T11:58:30;6.80;;;6.10;;
84080;SDS011;74173;48.190;16.350;2023-11-18T12:01:41;6.68;;;5.80;;
84080;SDS011;74173;48.190;16.350;2023-11-18T12:03:58;8.15;;;7.35;;
84080;SDS011;74173;48.190;16.350;2023-11-18T12:06:34;7.45;;;6.75;;
84080;SDS011;74173;48.190;16.350;2023-11-18T12:09:11;7.95;;;7.18;;
84080;SDS011;74173;48.190;16.350;2023-11-18T12:11:47;7.13;;;6.10;;
84080;SDS011;74173;48.190;16.350;2023-11-18T12:14:16;8.20;;;6.68;;
84080;SDS011;74173;48.190;16.350;2023-11-18T12:17:07;8.57;;;7.78;;
84080;SDS011;74173;48.190;16.350;2023-11-18T12:19:36;7.95;;;7.30;;
84080;SDS011;74173;48.190;16.350;2023-11-18T12:22:15;8.52;;;6.53;;
84080;SDS011;74173;48.190;16.350;2023-11-18T12:30:06;8.35;;;7.32;;
84080;SDS011;74173;48.190;16.350;2023-11-18T12:33:02;8.73;;;7.03;;
84080;SDS011;74173;48.190;16.350;2023-11-18T12:41:33;7.65;;;6.88;;
84080;SDS011;74173;48.190;16.350;2023-11-18T12:46:48;8.80;;;7.13;;
84080;SDS011;74173;48.190;16.350;2023-11-18T12:49:24;7.97;;;6.65;;
84080;SDS011;74173;48.190;16.350;2023-11-18T12:51:53;7.20;;;6.43;;
84080;SDS011;74173;48.190;16.350;2023-11-18T12:54:21;7.40;;;6.60;;
84080;SDS011;74173;48.190;16.350;2023-11-18T12:56:50;6.95;;;6.25;;
84080;SDS011;74173;48.190;16.350;2023-11-18T12:59:19;6.95;;;6.25;;
84080;SDS011;74173;48.190;16.350;2023-11-18T13:01:52;7.18;;;6.18;;
84080;SDS011;74173;48.190;16.350;2023-11-18T13:04:30;7.07;;;6.40;;
84080;SDS011;74173;48.190;16.350;2023-11-18T13:06:56;6.03;;;5.43;;
84080;SDS011;74173;48.190;16.350;2023-11-18T13:09:23;7.25;;;6.13;;
84080;SDS011;74173;48.190;16.350;2023-11-18T13:11:56;6.45;;;5.40;;
84080;SDS011;74173;48.190;16.350;2023-11-18T13:14:26;6.63;;;5.57;;
84080;SDS011;74173;48.190;16.350;2023-11-18T13:16:55;6.32;;;5.72;;
84080;SDS011;74173;48.190;16.350;2023-11-18T13:19:28;6.25;;;5.65;;
84080;SDS011;74173;48.190;16.350;2023-11-18T13:22:07;6.30;;;5.65;;
84080;SDS011;74173;48.190;16.350;2023-11-18T13:24:37;5.88;;;5.38;;
84080;SDS011;74173;48.190;16.350;2023-11-18T13:27:09;6.43;;;5.82;;
84080;SDS011;74173;48.190;16.350;2023-11-18T13:29:36;5.95;;;5.35;;
84080;SDS011;74173;48.190;16.350;2023-11-18T13:32:06;5.80;;;5.28;;
84080;SDS011;74173;48.190;16.350;2023-11-18T13:37:03;6.00;;;5.40;;
84080;SDS011;74173;48.190;16.350;2023-11-18T13:39:31;6.22;;;5.65;;
84080;SDS011;74173;48.190;16.350;2023-11-18T13:41:56;6.15;;;5.50;;
84080;SDS011;74173;48.190;16.350;2023-11-18T13:44:35;6.15;;;5.55;;
84080;SDS011;74173;48.190;16.350;2023-11-18T13:49:37;5.90;;;5.30;;
84080;SDS011;74173;48.190;16.350;2023-11-18T13:52:09;6.13;;;5.53;;
84080;SDS011;74173;48.190;16.350;2023-11-18T13:54:39;6.60;;;6.00;;
84080;SDS011;74173;48.190;16.350;2023-11-18T13:57:08;7.68;;;6.75;;
84080;SDS011;74173;48.190;16.350;2023-11-18T13:59:34;6.53;;;5.93;;
84080;SDS011;74173;48.190;16.350;2023-11-18T14:02:00;6.65;;;5.93;;
84080;SDS011;74173;48.190;16.350;2023-11-18T14:06:59;9.25;;;6.15;;
84080;SDS011;74173;48.190;16.350;2023-11-18T14:09:29;6.15;;;5.65;;
84080;SDS011;74173;48.190;16.350;2023-11-18T14:11:59;6.00;;;5.30;;
84080;SDS011;74173;48.190;16.350;2023-11-18T14:14:24;6.93;;;6.13;;
84080;SDS011;74173;48.190;16.350;2023-11-18T14:16:51;6.97;;;6.25;;
84080;SDS011;74173;48.190;16.350;2023-11-18T14:19:23;7.53;;;6.93;;
84080;SDS011;74173;48.190;16.350;2023-11-18T14:21:55;6.10;;;5.50;;
84080;SDS011;74173;48.190;16.350;2023-11-18T14:24:21;5.80;;;5.30;;
84080;SDS011;74173;48.190;16.350;2023-11-18T14:26:56;7.85;;;7.10;;
84080;SDS011;74173;48.190;16.350;2023-11-18T14:31:48;6.88;;;6.18;;
84080;SDS011;74173;48.190;16.350;2023-11-18T14:34:14;6.43;;;5.57;;
84080;SDS011;74173;48.190;16.350;2023-11-18T14:36:40;6.45;;;5.88;;
84080;SDS011;74173;48.190;16.350;2023-11-18T14:39:06;6.10;;;5.50;;
84080;SDS011;74173;48.190;16.350;2023-11-18T14:44:01;6.53;;;5.35;;
84080;SDS011;74173;48.190;16.350;2023-11-18T14:46:30;5.80;;;5.30;;
84080;SDS011;74173;48.190;16.350;2023-11-18T14:48:56;6.40;;;5.63;;
84080;SDS011;74173;48.190;16.350;2023-11-18T14:51:23;5.18;;;4.45;;
84080;SDS011;74173;48.190;16.350;2023-11-18T14:53:50;5.72;;;5.22;;
84080;SDS011;74173;48.190;16.350;2023-11-18T14:56:16;6.72;;;5.07;;
84080;SDS011;74173;48.190;16.350;2023-11-18T14:58:41;5.88;;;5.32;;
84080;SDS011;74173;48.190;16.350;2023-11-18T15:01:07;6.72;;;5.32;;
84080;SDS011;74173;48.190;16.350;2023-11-18T15:06:01;5.72;;;5.22;;
84080;SDS011;74173;48.190;16.350;2023-11-18T15:08:27;6.03;;;5.53;;
84080;SDS011;74173;48.190;16.350;2023-11-18T15:10:52;6.47;;;5.53;;
84080;SDS011;74173;48.190;16.350;2023-11-18T15:13:18;5.53;;;5.03;;
84080;SDS011;74173;48.190;16.350;2023-11-18T15:15:44;5.38;;;4.75;;
84080;SDS011;74173;48.190;16.350;2023-11-18T15:18:13;7.30;;;5.68;;
84080;SDS011;74173;48.190;16.350;2023-11-18T15:20:45;5.90;;;5.30;;
84080;SDS011;74173;48.190;16.350;2023-11-18T15:23:12;5.68;;;5.18;;
84080;SDS011;74173;48.190;16.350;2023-11-18T15:25:38;5.22;;;4.53;;
84080;SDS011;74173;48.190;16.350;2023-11-18T15:28:05;6.63;;;6.00;;
84080;SDS011;74173;48.190;16.350;2023-11-18T15:30:35;5.45;;;5.00;;
84080;SDS011;74173;48.190;16.350;2023-11-18T15:33:02;5.35;;;4.85;;
84080;SDS011;74173;48.190;16.350;2023-11-18T15:35:28;6.03;;;5.35;;
84080;SDS011;74173;48.190;16.350;2023-11-18T15:37:54;5.03;;;4.53;;
84080;SDS011;74173;48.190;16.350;2023-11-18T15:40:20;5.55;;;4.75;;
84080;SDS011;74173;48.190;16.350;2023-11-18T15:42:50;5.15;;;4.65;;
84080;SDS011;74173;48.190;16.350;2023-11-18T15:47:42;4.60;;;4.22;;
84080;SDS011;74173;48.190;16.350;2023-11-18T15:50:09;5.30;;;4.85;;
84080;SDS011;74173;48.190;16.350;2023-11-18T15:52:47;5.57;;;5.07;;
84080;SDS011;74173;48.190;16.350;2023-11-18T15:55:14;6.22;;;5.45;;
84080;SDS011;74173;48.190;16.350;2023-11-18T15:57:41;5.90;;;5.32;;
84080;SDS011;74173;48.190;16.350;2023-11-18T16:00:10;5.85;;;5.28;;
84080;SDS011;74173;48.190;16.350;2023-11-18T16:02:44;5.50;;;5.00;;
84080;SDS011;74173;48.190;16.350;2023-11-18T16:05:14;6.00;;;5.22;;
84080;SDS011;74173;48.190;16.350;2023-11-18T16:07:47;5.50;;;4.97;;
84080;SDS011;74173;48.190;16.350;2023-11-18T16:10:14;5.55;;;4.97;;
84080;SDS011;74173;48.190;16.350;2023-11-18T16:12:53;5.60;;;5.03;;
84080;SDS011;74173;48.190;16.350;2023-11-18T16:15:24;5.75;;;5.25;;
84080;SDS011;74173;48.190;16.350;2023-11-18T16:17:54;5.95;;;5.28;;
84080;SDS011;74173;48.190;16.350;2023-11-18T16:20:22;6.25;;;5.75;;
84080;SDS011;74173;48.190;16.350;2023-11-18T16:22:53;5.88;;;5.07;;
84080;SDS011;74173;48.190;16.350;2023-11-18T16:25:21;5.78;;;5.25;;
84080;SDS011;74173;48.190;16.350;2023-11-18T16:27:48;4.82;;;4.40;;
84080;SDS011;74173;48.190;16.350;2023-11-18T16:30:17;6.68;;;6.18;;
84080;SDS011;74173;48.190;16.350;2023-11-18T16:32:49;4.85;;;4.35;;
84080;SDS011;74173;48.190;16.350;2023-11-18T16:35:15;6.00;;;5.50;;
84080;SDS011;74173;48.190;16.350;2023-11-18T16:37:41;6.82;;;5.65;;
84080;SDS011;74173;48.190;16.350;2023-11-18T16:40:08;5.30;;;4.85;;
84080;SDS011;74173;48.190;16.350;2023-11-18T16:42:41;5.70;;;5.20;;
84080;SDS011;74173;48.190;16.350;2023-11-18T16:45:09;6.28;;;5.38;;
84080;SDS011;74173;48.190;16.350;2023-11-18T16:47:36;6.00;;;5.40;;
84080;SDS011;74173;48.190;16.350;2023-11-18T16:50:02;6.35;;;5.85;;
84080;SDS011;74173;48.190;16.350;2023-11-18T16:52:33;7.05;;;6.45;;
84080;SDS011;74173;48.190;16.350;2023-11-18T16:54:58;8.82;;;6.75;;